createdAt,value
2019-04-16T00:04:32.304Z,9.97
2019-04-16T00:09:51.380Z,11.63
2019-04-16T00:15:00.726Z,11.45
2019-04-16T00:20:07.274Z,11.33
2019-04-16T00:25:11.854Z,14.83
2019-04-16T00:30:17.555Z,17.17
2019-04-16T00:35:22.138Z,12.40
2019-04-16T00:40:27.360Z,11.40
2019-04-16T00:45:31.919Z,9.23
2019-04-16T00:50:37.512Z,10.23
2019-04-16T00:55:45.058Z,9.10
2019-04-16T01:00:49.428Z,10.57
2019-04-16T01:05:54.687Z,9.17
2019-04-16T01:10:59.127Z,11.27
2019-04-16T01:16:04.254Z,10.53
2019-04-16T01:21:13.790Z,11.50
2019-04-16T01:26:16.511Z,12.20
2019-04-16T01:31:41.412Z,11.17
2019-04-16T01:36:48.139Z,15.63
2019-04-16T01:41:53.394Z,12.60
2019-04-16T01:47:03.394Z,13.03
2019-04-16T01:52:05.638Z,12.53
2019-04-16T01:57:10.707Z,12.53
2019-04-16T02:02:16.037Z,10.97
2019-04-16T02:07:21.326Z,10.27
2019-04-16T02:12:26.528Z,12.07
2019-04-16T02:17:34.684Z,9.00
2019-04-16T02:22:42.307Z,11.40
2019-04-16T02:27:46.800Z,12.30
2019-04-16T02:32:52.037Z,9.70
2019-04-16T02:37:57.195Z,10.40
2019-04-16T02:43:06.543Z,12.07
2019-04-16T02:48:14.668Z,13.60
2019-04-16T02:53:34.070Z,12.17
2019-04-16T02:58:40.895Z,11.83
2019-04-16T03:03:47.747Z,17.23
2019-04-16T03:08:52.897Z,11.80
2019-04-16T03:13:59.431Z,12.57
2019-04-16T03:19:06.358Z,14.97
2019-04-16T03:24:11.458Z,15.33
2019-04-16T03:29:16.612Z,12.10
2019-04-16T03:34:22.632Z,16.37
2019-04-16T03:39:27.817Z,16.80
2019-04-16T03:44:33.551Z,15.57
2019-04-16T03:49:39.763Z,16.43
2019-04-16T03:54:44.829Z,15.40
2019-04-16T03:59:49.914Z,14.37
2019-04-16T04:04:57.569Z,18.83
2019-04-16T04:10:01.370Z,17.10
2019-04-16T04:15:07.233Z,15.67
2019-04-16T04:20:14.612Z,12.78
2019-04-16T04:25:19.457Z,17.20
2019-04-16T04:30:25.691Z,19.30
2019-04-16T04:35:31.566Z,18.87
2019-04-16T04:40:44.318Z,20.30
2019-04-16T04:45:42.323Z,16.80
2019-04-16T04:50:46.757Z,18.10
2019-04-16T04:55:51.259Z,16.97
2019-04-16T05:00:55.935Z,20.60
2019-04-16T05:06:12.029Z,16.33
2019-04-16T05:11:17.109Z,19.90
2019-04-16T05:16:22.871Z,20.47
2019-04-16T05:21:27.376Z,20.23
2019-04-16T05:26:33.529Z,21.60
2019-04-16T05:31:38.181Z,27.70
2019-04-16T05:36:46.201Z,22.30
2019-04-16T05:41:50.462Z,24.97
2019-04-16T05:46:54.993Z,26.27
2019-04-16T05:52:02.890Z,24.50
2019-04-16T05:57:07.506Z,29.23
2019-04-16T06:02:15.068Z,24.93
2019-04-16T06:07:19.761Z,19.83
2019-04-16T06:12:25.940Z,24.63
2019-04-16T06:17:48.375Z,25.23
2019-04-16T06:23:01.508Z,22.73
2019-04-16T06:28:07.741Z,19.67
2019-04-16T06:33:19.719Z,20.53
2019-04-16T06:38:25.916Z,17.93
2019-04-16T06:43:33.112Z,15.23
2019-04-16T06:48:51.535Z,16.43
2019-04-16T06:54:16.008Z,16.27
2019-04-16T06:59:22.173Z,11.97
2019-04-16T07:04:30.997Z,15.72
2019-04-16T07:09:41.896Z,13.20
2019-04-16T07:14:45.606Z,14.23
2019-04-16T07:19:49.814Z,13.73
2019-04-16T07:24:55.807Z,13.00
2019-04-16T07:30:06.941Z,13.83
2019-04-16T07:35:18.541Z,13.70
2019-04-16T07:40:40.954Z,14.00
2019-04-16T07:45:54.313Z,13.40
2019-04-16T07:51:16.623Z,14.63
2019-04-16T07:56:22.761Z,14.63
2019-04-16T08:01:27.261Z,11.50
2019-04-16T08:06:31.873Z,12.93
2019-04-16T08:11:36.443Z,9.03
2019-04-16T08:16:47.624Z,13.60
2019-04-16T08:21:47.217Z,8.20
2019-04-16T08:26:51.762Z,8.47
2019-04-16T08:31:56.317Z,13.07
2019-04-16T08:37:00.816Z,9.20
2019-04-16T08:42:05.574Z,7.62
2019-04-16T08:47:12.069Z,8.57
2019-04-16T08:52:16.272Z,9.40
2019-04-16T08:57:20.916Z,11.63
2019-04-16T09:02:27.063Z,9.37
2019-04-16T09:07:40.991Z,8.67
2019-04-16T09:13:02.071Z,7.47
2019-04-16T09:17:54.329Z,12.63
2019-04-16T09:22:59.304Z,8.73
2019-04-16T09:28:09.895Z,9.10
2019-04-16T09:33:13.859Z,8.67
2019-04-16T09:38:20.022Z,6.33
2019-04-16T09:43:32.211Z,10.50
2019-04-16T09:48:36.922Z,11.77
2019-04-16T09:53:41.388Z,10.10
2019-04-16T09:58:46.155Z,6.33
2019-04-16T10:03:54.965Z,8.97
2019-04-16T10:08:59.560Z,7.67
2019-04-16T10:14:04.400Z,8.33
2019-04-16T10:19:09.232Z,7.57
2019-04-16T10:24:15.453Z,9.10
2019-04-16T10:29:21.452Z,8.40
2019-04-16T10:34:26.008Z,8.35
2019-04-16T10:39:41.632Z,11.33
2019-04-16T10:44:47.857Z,7.40
2019-04-16T10:49:54.069Z,10.50
2019-04-16T10:55:03.486Z,7.50
2019-04-16T11:00:19.585Z,6.70
2019-04-16T11:05:25.806Z,8.37
2019-04-16T11:10:30.500Z,8.10
2019-04-16T11:15:35.326Z,9.60
2019-04-16T11:20:39.965Z,11.23
2019-04-16T11:25:45.625Z,11.03
2019-04-16T11:31:05.126Z,10.10
2019-04-16T11:36:18.723Z,11.37
2019-04-16T11:41:15.820Z,17.10
2019-04-16T11:46:20.611Z,10.47
2019-04-16T11:51:25.013Z,8.53
2019-04-16T11:56:29.589Z,9.70
2019-04-16T12:01:38.671Z,11.97
2019-04-16T12:06:44.932Z,8.13
2019-04-16T12:11:56.935Z,9.00
2019-04-16T12:17:18.243Z,9.67
2019-04-16T12:22:49.657Z,7.70
2019-04-16T12:28:12.615Z,9.53
2019-04-16T12:33:29.169Z,11.43
2019-04-16T12:38:38.230Z,9.83
2019-04-16T12:43:44.369Z,9.30
2019-04-16T12:49:02.688Z,9.47
2019-04-16T12:54:11.713Z,8.70
2019-04-16T12:59:26.991Z,18.03
2019-04-16T13:04:49.538Z,10.37
2019-04-16T13:09:58.497Z,14.13
2019-04-16T13:15:14.047Z,18.77
2019-04-16T13:20:30.140Z,10.63
2019-04-16T13:25:39.269Z,9.03
2019-04-16T13:30:43.715Z,8.57
2019-04-16T13:35:48.332Z,13.55
2019-04-16T13:40:53.992Z,8.20
2019-04-16T13:45:58.868Z,8.65
2019-04-16T13:51:06.393Z,12.07
2019-04-16T13:56:24.900Z,7.15
2019-04-16T14:01:31.209Z,7.42
2019-04-16T14:06:35.763Z,11.95
2019-04-16T14:11:40.311Z,10.35
2019-04-16T14:16:45.684Z,10.75
2019-04-16T14:21:50.166Z,7.92
2019-04-16T14:26:54.723Z,9.73
2019-04-16T14:31:59.357Z,8.45
2019-04-16T14:37:03.931Z,7.22
2019-04-16T14:42:08.706Z,10.55
2019-04-16T14:47:13.164Z,11.63
2019-04-16T14:52:17.858Z,15.35
2019-04-16T14:57:22.436Z,6.85
2019-04-16T15:02:29.616Z,7.00
2019-04-16T15:07:52.748Z,7.55
2019-04-16T15:13:15.262Z,13.38
2019-04-16T15:18:27.292Z,9.33
2019-04-16T15:23:33.506Z,7.17
2019-04-16T15:28:51.946Z,7.20
2019-04-16T15:34:03.863Z,10.48
2019-04-16T15:39:16.040Z,6.72
2019-04-16T15:44:31.759Z,6.45
2019-04-16T15:49:44.984Z,8.05
2019-04-16T15:54:57.100Z,7.62
2019-04-16T16:00:06.045Z,7.05
2019-04-16T16:05:21.905Z,8.68
2019-04-16T16:10:30.942Z,8.33
2019-04-16T16:15:40.233Z,9.03
2019-04-16T16:20:41.626Z,5.58
2019-04-16T16:25:46.188Z,6.67
2019-04-16T16:30:50.738Z,6.95
2019-04-16T16:35:58.623Z,10.82
2019-04-16T16:41:03.061Z,13.40
2019-04-16T16:46:18.292Z,8.58
2019-04-16T16:51:23.333Z,8.73
2019-04-16T16:56:45.586Z,11.55
2019-04-16T17:01:56.552Z,11.00
2019-04-16T17:07:01.436Z,14.87
2019-04-16T17:12:06.058Z,13.40
2019-04-16T17:17:14.983Z,17.57
2019-04-16T17:22:18.085Z,22.70
2019-04-16T17:27:22.877Z,16.70
2019-04-16T17:32:27.634Z,13.50
2019-04-16T17:37:32.248Z,10.23
2019-04-16T17:42:38.613Z,11.30
2019-04-16T17:48:00.431Z,12.53
2019-04-16T17:53:06.766Z,11.57
2019-04-16T17:58:12.993Z,14.73
2019-04-16T18:03:19.392Z,11.30
2019-04-16T18:08:27.024Z,15.33
2019-04-16T18:13:33.635Z,12.60
2019-04-16T18:23:33.364Z,15.67
2019-04-16T18:28:39.813Z,28.40
2019-04-16T18:33:46.283Z,11.90
2019-04-16T18:38:52.878Z,16.43
2019-04-16T18:44:02.031Z,14.63
2019-04-16T18:49:11.157Z,17.10
2019-04-16T18:54:17.739Z,8.60
2019-04-16T18:59:22.363Z,8.47
2019-04-16T19:04:28.587Z,8.40
2019-04-16T19:09:33.551Z,7.67
2019-04-16T19:14:38.185Z,11.83
2019-04-16T19:19:45.454Z,7.30
2019-04-16T19:24:49.380Z,8.85
2019-04-16T19:29:54.236Z,7.53
2019-04-16T19:35:08.909Z,8.63
2019-04-16T19:40:07.254Z,7.90
2019-04-16T19:45:12.796Z,9.00
2019-04-16T19:50:19.105Z,11.75
2019-04-16T19:55:26.188Z,11.13
2019-04-16T20:00:31.629Z,8.83
2019-04-16T20:05:36.730Z,8.43
2019-04-16T20:10:41.737Z,9.97
2019-04-16T20:15:46.416Z,9.93
2019-04-16T20:20:51.210Z,7.33
2019-04-16T20:26:00.401Z,11.90
2019-04-16T20:31:05.502Z,9.17
2019-04-16T20:36:10.152Z,10.67
2019-04-16T20:41:18.968Z,10.13
2019-04-16T20:46:22.751Z,7.47
2019-04-16T20:51:27.786Z,9.90
2019-04-16T20:56:32.299Z,8.00
2019-04-16T21:01:37.955Z,7.55
2019-04-16T21:06:42.956Z,15.33
2019-04-16T21:11:47.698Z,8.40
2019-04-16T21:16:52.530Z,11.53
2019-04-16T21:22:01.165Z,12.17
2019-04-16T21:27:04.629Z,13.10
2019-04-16T21:32:17.447Z,9.87
2019-04-16T21:37:32.555Z,12.63
2019-04-16T21:42:37.010Z,13.13
2019-04-16T21:47:41.553Z,10.23
2019-04-16T21:52:46.134Z,12.60
2019-04-16T21:57:50.772Z,11.30
2019-04-16T22:02:56.144Z,10.63
2019-04-16T22:08:00.604Z,17.03
2019-04-16T22:13:07.293Z,10.57
2019-04-16T22:18:11.723Z,10.57
2019-04-16T22:23:19.212Z,14.33
2019-04-16T22:28:22.895Z,9.17
2019-04-16T22:33:27.325Z,8.77
2019-04-16T22:38:34.284Z,11.63
2019-04-16T22:43:42.646Z,8.80
2019-04-16T22:49:00.429Z,11.67
2019-04-16T22:54:05.074Z,9.40
2019-04-16T22:59:10.521Z,11.90
2019-04-16T23:04:14.990Z,10.82
2019-04-16T23:09:20.374Z,11.60
2019-04-16T23:14:24.887Z,13.20
2019-04-16T23:19:29.457Z,12.27
2019-04-16T23:24:33.942Z,12.67
2019-04-16T23:29:38.360Z,13.77
2019-04-16T23:34:42.862Z,13.00
2019-04-16T23:39:47.337Z,11.73
2019-04-16T23:45:00.387Z,12.30
2019-04-16T23:50:24.019Z,11.67
2019-04-16T23:55:36.877Z,10.87
